createdAt,value
2023-02-18T00:00:37.162Z,21.01
2023-02-18T00:02:38.505Z,21.16
2023-02-18T00:04:39.926Z,21.21
2023-02-18T00:06:41.259Z,21.21
2023-02-18T00:08:42.601Z,21.22
2023-02-18T00:10:44.110Z,21.25
2023-02-18T00:12:45.432Z,21.26
2023-02-18T00:14:46.729Z,21.27
2023-02-18T00:16:48.028Z,21.32
2023-02-18T00:18:49.331Z,21.32
2023-02-18T00:20:50.644Z,21.34
2023-02-18T00:22:51.981Z,21.34
2023-02-18T00:24:53.405Z,21.36
2023-02-18T00:26:54.695Z,21.38
2023-02-18T00:28:56.011Z,21.37
2023-02-18T00:30:57.349Z,21.37
2023-02-18T00:32:58.689Z,21.38
2023-02-18T00:35:00.025Z,21.40
2023-02-18T00:37:01.319Z,21.42
2023-02-18T00:39:03.948Z,21.41
2023-02-18T00:41:05.286Z,21.41
2023-02-18T00:43:06.580Z,21.41
2023-02-18T00:45:07.923Z,21.40
2023-02-18T00:47:09.223Z,21.40
2023-02-18T00:49:10.548Z,21.39
2023-02-18T00:51:11.871Z,21.38
2023-02-18T00:53:13.173Z,21.36
2023-02-18T00:55:14.540Z,21.35
2023-02-18T00:57:15.861Z,21.33
2023-02-18T00:59:17.154Z,21.31
2023-02-18T01:01:18.486Z,21.29
2023-02-18T01:03:19.897Z,21.26
2023-02-18T01:05:21.227Z,21.23
2023-02-18T01:07:22.552Z,21.19
2023-02-18T01:09:25.798Z,21.15
2023-02-18T01:11:27.143Z,21.11
2023-02-18T01:13:28.487Z,21.08
2023-02-18T01:15:29.830Z,21.05
2023-02-18T01:17:31.146Z,21.03
2023-02-18T01:19:32.444Z,21.01
2023-02-18T01:21:33.738Z,21.00
2023-02-18T01:23:35.031Z,21.02
2023-02-18T01:25:36.332Z,20.99
2023-02-18T01:27:37.680Z,20.98
2023-02-18T01:29:39.031Z,20.98
2023-02-18T01:31:40.492Z,20.98
2023-02-18T01:33:41.880Z,20.96
2023-02-18T01:35:43.215Z,20.96
2023-02-18T01:37:44.504Z,20.95
2023-02-18T01:39:46.077Z,20.94
2023-02-18T01:41:47.379Z,20.93
2023-02-18T01:43:48.697Z,20.94
2023-02-18T01:45:50.550Z,20.93
2023-02-18T01:47:51.846Z,20.94
2023-02-18T01:49:53.170Z,20.96
2023-02-18T01:51:54.580Z,20.98
2023-02-18T01:53:55.951Z,21.04
2023-02-18T01:55:57.287Z,21.09
2023-02-18T01:57:58.598Z,21.09
2023-02-18T01:59:59.928Z,21.10
2023-02-18T02:02:01.331Z,21.17
2023-02-18T02:04:02.704Z,21.24
2023-02-18T02:06:03.992Z,21.25
2023-02-18T02:08:05.287Z,21.25
2023-02-18T02:10:06.619Z,21.27
2023-02-18T02:12:07.908Z,21.27
2023-02-18T02:14:09.200Z,21.29
2023-02-18T02:16:10.825Z,21.29
2023-02-18T02:18:12.347Z,21.29
2023-02-18T02:20:13.640Z,21.29
2023-02-18T02:22:14.979Z,21.28
2023-02-18T02:24:16.291Z,21.28
2023-02-18T02:26:17.597Z,21.28
2023-02-18T02:28:18.934Z,21.27
2023-02-18T02:30:20.305Z,21.28
2023-02-18T02:32:21.718Z,21.28
2023-02-18T02:34:23.017Z,21.26
2023-02-18T02:36:24.311Z,21.21
2023-02-18T02:38:25.651Z,21.18
2023-02-18T02:40:27.755Z,21.13
2023-02-18T02:42:29.155Z,21.12
2023-02-18T02:44:30.489Z,21.10
2023-02-18T02:46:31.782Z,21.08
2023-02-18T02:48:33.117Z,21.09
2023-02-18T02:50:34.448Z,21.07
2023-02-18T02:52:35.756Z,21.07
2023-02-18T02:54:37.185Z,21.06
2023-02-18T02:56:38.525Z,21.06
2023-02-18T02:58:39.856Z,21.07
2023-02-18T03:00:41.183Z,21.07
2023-02-18T03:02:42.602Z,21.11
2023-02-18T03:04:43.928Z,21.13
2023-02-18T03:06:45.230Z,21.15
2023-02-18T03:08:46.558Z,21.19
2023-02-18T03:10:47.907Z,21.19
2023-02-18T03:12:49.205Z,21.20
2023-02-18T03:14:50.511Z,21.22
2023-02-18T03:16:51.844Z,21.25
2023-02-18T03:18:53.209Z,21.28
2023-02-18T03:20:54.536Z,21.33
2023-02-18T03:22:55.900Z,21.36
2023-02-18T03:24:57.187Z,21.42
2023-02-18T03:26:58.476Z,21.41
2023-02-18T03:28:59.811Z,21.42
2023-02-18T03:31:01.172Z,21.45
2023-02-18T03:33:02.505Z,21.52
2023-02-18T03:35:03.838Z,21.25
2023-02-18T03:37:05.135Z,21.06
2023-02-18T03:39:06.474Z,21.23
2023-02-18T03:41:07.774Z,21.34
2023-02-18T03:43:09.172Z,21.38
2023-02-18T03:45:10.472Z,21.41
2023-02-18T03:47:11.799Z,21.41
2023-02-18T03:49:13.129Z,21.42
2023-02-18T03:51:14.443Z,21.38
2023-02-18T03:53:15.735Z,21.39
2023-02-18T03:55:17.057Z,21.38
2023-02-18T03:57:18.400Z,21.34
2023-02-18T03:59:19.699Z,21.32
2023-02-18T04:01:21.022Z,21.31
2023-02-18T04:03:22.320Z,21.34
2023-02-18T04:05:23.610Z,21.34
2023-02-18T04:07:24.942Z,21.32
2023-02-18T04:09:26.647Z,21.32
2023-02-18T04:11:27.954Z,21.30
2023-02-18T04:13:29.289Z,21.29
2023-02-18T04:15:30.623Z,21.28
2023-02-18T04:17:31.961Z,21.27
2023-02-18T04:19:33.271Z,21.28
2023-02-18T04:21:34.611Z,21.26
2023-02-18T04:23:35.991Z,21.27
2023-02-18T04:25:37.284Z,21.25
2023-02-18T04:27:38.588Z,21.27
2023-02-18T04:29:40.119Z,21.26
2023-02-18T04:31:41.504Z,21.27
2023-02-18T04:33:42.828Z,21.29
2023-02-18T04:35:44.126Z,21.31
2023-02-18T04:37:45.453Z,21.32
2023-02-18T04:39:46.753Z,21.30
2023-02-18T04:41:48.047Z,21.31
2023-02-18T04:43:49.383Z,21.31
2023-02-18T04:45:50.682Z,21.30
2023-02-18T04:47:52.059Z,21.35
2023-02-18T04:49:53.363Z,21.42
2023-02-18T04:51:54.666Z,21.47
2023-02-18T04:53:55.954Z,21.49
2023-02-18T04:55:57.346Z,21.47
2023-02-18T04:57:58.658Z,21.42
2023-02-18T04:59:59.956Z,21.44
2023-02-18T05:02:02.154Z,21.50
2023-02-18T05:04:03.485Z,21.53
2023-02-18T05:06:04.863Z,21.53
2023-02-18T05:08:06.182Z,21.50
2023-02-18T05:10:07.479Z,21.52
2023-02-18T05:12:08.792Z,21.45
2023-02-18T05:14:10.139Z,21.40
2023-02-18T05:16:11.810Z,21.37
2023-02-18T05:18:13.309Z,21.35
2023-02-18T05:20:14.609Z,21.34
2023-02-18T05:22:21.799Z,21.37
2023-02-18T05:24:23.100Z,21.34
2023-02-18T05:26:24.388Z,21.34
2023-02-18T05:28:25.720Z,21.32
2023-02-18T05:30:27.041Z,21.29
2023-02-18T05:32:28.451Z,21.28
2023-02-18T05:34:29.764Z,21.25
2023-02-18T05:36:31.060Z,21.29
2023-02-18T05:38:32.346Z,21.27
2023-02-18T05:40:33.641Z,21.27
2023-02-18T05:42:34.976Z,21.24
2023-02-18T05:44:36.313Z,21.26
2023-02-18T05:46:37.687Z,21.26
2023-02-18T05:48:39.037Z,21.25
2023-02-18T05:50:40.329Z,21.26
2023-02-18T05:52:41.659Z,21.25
2023-02-18T05:54:42.966Z,21.24
2023-02-18T05:56:44.291Z,21.25
2023-02-18T05:58:45.615Z,21.27
2023-02-18T06:00:46.965Z,21.30
2023-02-18T06:02:48.345Z,21.36
2023-02-18T06:04:49.779Z,21.41
2023-02-18T06:06:51.154Z,21.43
2023-02-18T06:08:52.489Z,21.47
2023-02-18T06:10:53.840Z,21.46
2023-02-18T06:12:55.165Z,21.49
2023-02-18T06:14:56.463Z,21.50
2023-02-18T06:16:57.811Z,21.50
2023-02-18T06:18:59.113Z,21.51
2023-02-18T06:21:00.603Z,21.48
2023-02-18T06:23:01.951Z,21.49
2023-02-18T06:25:03.356Z,21.48
2023-02-18T06:27:04.660Z,21.46
2023-02-18T06:29:05.987Z,21.43
2023-02-18T06:31:07.373Z,21.39
2023-02-18T06:33:08.735Z,21.36
2023-02-18T06:35:10.063Z,21.36
2023-02-18T06:37:11.356Z,21.35
2023-02-18T06:39:12.658Z,21.33
2023-02-18T06:41:13.990Z,21.29
2023-02-18T06:43:15.334Z,21.25
2023-02-18T06:45:16.674Z,21.24
2023-02-18T06:47:17.977Z,21.20
2023-02-18T06:49:19.271Z,21.22
2023-02-18T06:51:20.606Z,21.29
2023-02-18T06:53:21.942Z,21.31
2023-02-18T06:55:23.283Z,21.29
2023-02-18T06:57:24.575Z,21.25
2023-02-18T06:59:25.867Z,21.25
2023-02-18T07:01:27.250Z,21.23
2023-02-18T07:03:28.615Z,21.19
2023-02-18T07:05:29.948Z,21.19
2023-02-18T07:07:31.320Z,21.15
2023-02-18T07:09:32.615Z,21.12
2023-02-18T07:11:33.900Z,21.09
2023-02-18T07:13:35.303Z,21.05
2023-02-18T07:15:36.603Z,21.04
2023-02-18T07:17:37.900Z,21.01
2023-02-18T07:19:39.192Z,20.95
2023-02-18T07:21:40.490Z,20.90
2023-02-18T07:23:41.793Z,20.88
2023-02-18T07:25:43.136Z,20.91
2023-02-18T07:27:44.497Z,21.01
2023-02-18T07:29:45.858Z,21.07
2023-02-18T07:31:47.225Z,21.15
2023-02-18T07:33:48.584Z,21.24
2023-02-18T07:35:49.989Z,21.31
2023-02-18T07:37:51.469Z,21.05
2023-02-18T07:39:52.834Z,21.20
2023-02-18T07:41:54.167Z,18.81
2023-02-18T07:43:55.460Z,17.89
2023-02-18T07:45:56.854Z,17.42
2023-02-18T07:47:58.207Z,17.07
2023-02-18T07:49:59.591Z,16.78
2023-02-18T07:52:00.925Z,16.56
2023-02-18T07:54:02.230Z,16.26
2023-02-18T07:56:03.578Z,15.97
2023-02-18T07:58:04.931Z,15.96
2023-02-18T08:00:06.267Z,17.79
2023-02-18T08:02:07.729Z,19.54
2023-02-18T08:04:09.159Z,20.21
2023-02-18T08:06:10.853Z,20.50
2023-02-18T08:08:12.285Z,20.63
2023-02-18T08:10:14.041Z,20.71
2023-02-18T08:12:15.451Z,20.80
2023-02-18T08:14:19.831Z,20.87
2023-02-18T08:16:24.321Z,20.92
2023-02-18T08:18:25.656Z,20.96
2023-02-18T08:20:27.700Z,21.03
2023-02-18T08:22:30.490Z,21.11
2023-02-18T08:24:31.788Z,21.13
2023-02-18T08:26:33.120Z,21.18
2023-02-18T08:28:34.424Z,21.19
2023-02-18T08:30:35.864Z,21.19
2023-02-18T08:32:37.252Z,21.22
2023-02-18T08:34:38.639Z,21.20
2023-02-18T08:36:39.939Z,21.20
2023-02-18T08:38:41.248Z,21.25
2023-02-18T08:40:42.619Z,21.21
2023-02-18T08:42:43.959Z,21.21
2023-02-18T08:44:45.259Z,21.21
2023-02-18T08:46:48.202Z,21.22
2023-02-18T08:48:49.530Z,21.25
2023-02-18T08:50:50.910Z,21.22
2023-02-18T08:52:52.207Z,21.21
2023-02-18T08:54:53.552Z,21.22
2023-02-18T08:56:55.263Z,21.23
2023-02-18T08:58:56.577Z,21.17
2023-02-18T09:00:57.916Z,21.11
2023-02-18T09:02:59.248Z,21.06
2023-02-18T09:05:00.626Z,21.01
2023-02-18T09:07:02.328Z,20.96
2023-02-18T09:09:03.633Z,20.93
2023-02-18T09:11:04.983Z,20.90
2023-02-18T09:13:06.392Z,20.87
2023-02-18T09:15:07.701Z,20.84
2023-02-18T09:17:09.126Z,20.83
2023-02-18T09:19:10.415Z,20.79
2023-02-18T09:21:11.800Z,20.76
2023-02-18T09:23:13.125Z,20.72
2023-02-18T09:25:14.467Z,20.70
2023-02-18T09:27:15.788Z,20.68
2023-02-18T09:29:17.211Z,20.67
2023-02-18T09:31:18.621Z,20.65
2023-02-18T09:33:20.005Z,20.65
2023-02-18T09:35:21.381Z,20.67
2023-02-18T09:37:22.675Z,20.62
2023-02-18T09:39:24.004Z,21.68
2023-02-18T09:41:25.353Z,22.39
2023-02-18T09:43:26.668Z,22.42
2023-02-18T09:45:28.014Z,22.86
2023-02-18T09:47:29.359Z,22.79
2023-02-18T09:49:31.296Z,22.40
2023-02-18T09:51:32.628Z,22.11
2023-02-18T09:53:33.923Z,22.04
2023-02-18T09:55:36.367Z,22.08
2023-02-18T09:57:37.691Z,22.18
2023-02-18T09:59:38.984Z,21.95
2023-02-18T10:01:40.393Z,22.41
2023-02-18T10:03:43.817Z,22.81
2023-02-18T10:05:45.112Z,22.95
2023-02-18T10:07:46.411Z,23.24
2023-02-18T10:09:48.535Z,22.72
2023-02-18T10:11:49.887Z,22.17
2023-02-18T10:13:51.290Z,21.89
2023-02-18T10:15:52.689Z,21.68
2023-02-18T10:17:54.068Z,21.57
2023-02-18T10:19:55.410Z,21.46
2023-02-18T10:21:56.784Z,21.40
2023-02-18T10:23:58.535Z,21.34
2023-02-18T10:25:59.905Z,21.28
2023-02-18T10:28:01.225Z,21.24
2023-02-18T10:30:02.572Z,21.19
2023-02-18T10:32:03.901Z,21.15
2023-02-18T10:34:05.224Z,21.10
2023-02-18T10:36:06.556Z,21.06
2023-02-18T10:38:07.889Z,21.04
2023-02-18T10:40:09.185Z,21.00
2023-02-18T10:42:10.671Z,20.96
2023-02-18T10:44:12.018Z,20.93
2023-02-18T10:46:13.799Z,20.91
2023-02-18T10:48:15.363Z,20.88
2023-02-18T10:50:16.672Z,20.87
2023-02-18T10:52:17.967Z,20.85
2023-02-18T10:54:19.308Z,20.85
2023-02-18T10:56:20.702Z,20.83
2023-02-18T10:58:22.023Z,20.84
2023-02-18T11:00:24.132Z,20.84
2023-02-18T11:02:25.540Z,20.85
2023-02-18T11:04:26.890Z,20.90
2023-02-18T11:06:28.239Z,20.95
2023-02-18T11:08:30.207Z,20.98
2023-02-18T11:10:31.583Z,21.02
2023-02-18T11:12:32.894Z,21.08
2023-02-18T11:14:34.199Z,21.10
2023-02-18T11:16:35.500Z,21.15
2023-02-18T11:18:36.888Z,21.18
2023-02-18T11:20:38.192Z,21.21
2023-02-18T11:22:41.421Z,21.20
2023-02-18T11:24:48.191Z,21.22
2023-02-18T11:26:49.503Z,21.33
2023-02-18T11:28:50.849Z,21.71
2023-02-18T11:30:52.163Z,21.93
2023-02-18T11:32:53.503Z,21.99
2023-02-18T11:34:54.795Z,22.43
2023-02-18T11:36:56.140Z,22.37
2023-02-18T11:38:57.561Z,22.12
2023-02-18T11:40:58.891Z,21.79
2023-02-18T11:43:00.240Z,21.63
2023-02-18T11:45:04.472Z,21.54
2023-02-18T11:47:06.783Z,21.45
2023-02-18T11:49:08.087Z,21.39
2023-02-18T11:51:09.632Z,21.36
2023-02-18T11:53:11.123Z,21.32
2023-02-18T11:55:15.436Z,21.29
2023-02-18T11:57:17.043Z,21.27
2023-02-18T11:59:18.330Z,21.23
2023-02-18T12:01:19.666Z,21.24
2023-02-18T12:03:20.975Z,21.20
2023-02-18T12:05:23.024Z,21.18
2023-02-18T12:07:24.376Z,21.18
2023-02-18T12:09:25.675Z,21.17
2023-02-18T12:11:27.026Z,21.16
2023-02-18T12:13:28.332Z,21.14
2023-02-18T12:15:29.628Z,21.12
2023-02-18T12:17:31.245Z,21.12
2023-02-18T12:19:32.822Z,21.12
2023-02-18T12:21:34.127Z,21.10
2023-02-18T12:23:35.465Z,21.08
2023-02-18T12:25:43.099Z,21.09
2023-02-18T12:27:44.439Z,21.10
2023-02-18T12:29:45.732Z,21.07
2023-02-18T12:31:47.058Z,21.19
2023-02-18T12:33:48.460Z,21.53
2023-02-18T12:35:49.962Z,21.77
2023-02-18T12:37:51.303Z,22.96
2023-02-18T12:39:52.694Z,23.15
2023-02-18T12:41:53.985Z,23.08
2023-02-18T12:43:55.291Z,22.88
2023-02-18T12:45:57.308Z,22.90
2023-02-18T12:47:58.696Z,22.98
2023-02-18T12:50:00.039Z,23.01
2023-02-18T12:52:02.255Z,22.97
2023-02-18T12:54:06.004Z,23.11
2023-02-18T12:56:08.601Z,23.02
2023-02-18T12:58:10.105Z,22.46
2023-02-18T13:00:11.430Z,22.18
2023-02-18T13:02:12.790Z,22.05
2023-02-18T13:04:14.930Z,21.97
2023-02-18T13:06:17.127Z,21.93
2023-02-18T13:08:18.474Z,21.89
2023-02-18T13:10:19.797Z,21.86
2023-02-18T13:12:21.096Z,21.84
2023-02-18T13:14:22.396Z,21.80
2023-02-18T13:16:26.723Z,21.78
2023-02-18T13:18:28.053Z,21.76
2023-02-18T13:20:32.427Z,21.74
2023-02-18T13:22:33.725Z,21.71
2023-02-18T13:24:35.113Z,21.69
2023-02-18T13:26:36.525Z,21.68
2023-02-18T13:28:37.828Z,21.66
2023-02-18T13:30:39.347Z,21.67
2023-02-18T13:32:40.729Z,21.64
2023-02-18T13:34:43.010Z,21.62
2023-02-18T13:36:44.312Z,21.61
2023-02-18T13:38:45.634Z,21.61
2023-02-18T13:40:46.967Z,21.60
2023-02-18T13:42:48.323Z,21.59
2023-02-18T13:44:49.652Z,21.58
2023-02-18T13:46:51.009Z,21.55
2023-02-18T13:48:52.837Z,21.55
2023-02-18T13:50:54.300Z,21.57
2023-02-18T13:52:55.652Z,21.54
2023-02-18T13:54:56.983Z,21.54
2023-02-18T13:56:58.310Z,21.59
2023-02-18T13:59:00.333Z,21.63
2023-02-18T14:01:02.207Z,21.66
2023-02-18T14:03:03.538Z,21.75
2023-02-18T14:05:07.543Z,21.74
2023-02-18T14:07:08.879Z,21.64
2023-02-18T14:09:10.180Z,21.55
2023-02-18T14:11:11.524Z,21.50
2023-02-18T14:13:12.821Z,21.45
2023-02-18T14:15:14.122Z,21.43
2023-02-18T14:17:15.505Z,21.41
2023-02-18T14:19:16.838Z,21.41
2023-02-18T14:21:18.194Z,21.34
2023-02-18T14:23:19.597Z,21.27
2023-02-18T14:25:20.966Z,21.22
2023-02-18T14:27:22.289Z,21.17
2023-02-18T14:29:23.619Z,21.10
2023-02-18T14:31:30.271Z,21.03
2023-02-18T14:33:32.542Z,20.96
2023-02-18T14:35:34.119Z,20.90
2023-02-18T14:37:36.592Z,20.89
2023-02-18T14:39:37.950Z,20.88
2023-02-18T14:41:39.240Z,20.87
2023-02-18T14:43:40.974Z,20.88
2023-02-18T14:45:45.382Z,20.90
2023-02-18T14:47:46.715Z,20.90
2023-02-18T14:49:48.147Z,20.91
2023-02-18T14:51:49.477Z,21.89
2023-02-18T14:53:50.836Z,22.47
2023-02-18T14:55:52.174Z,22.63
2023-02-18T14:57:53.598Z,22.58
2023-02-18T14:59:54.893Z,21.89
2023-02-18T15:01:56.536Z,22.22
2023-02-18T15:03:57.892Z,22.51
2023-02-18T15:05:59.215Z,22.80
2023-02-18T15:08:00.588Z,22.56
2023-02-18T15:10:02.196Z,22.79
2023-02-18T15:12:04.614Z,23.03
2023-02-18T15:14:06.109Z,23.19
2023-02-18T15:16:07.997Z,23.01
2023-02-18T15:18:09.622Z,23.33
2023-02-18T15:20:10.924Z,23.54
2023-02-18T15:22:12.235Z,23.42
2023-02-18T15:24:13.716Z,23.31
2023-02-18T15:26:15.185Z,23.27
2023-02-18T15:28:16.488Z,23.00
2023-02-18T15:30:17.975Z,22.86
2023-02-18T15:32:19.525Z,22.87
2023-02-18T15:34:20.919Z,23.43
2023-02-18T15:36:22.246Z,23.55
2023-02-18T15:38:23.555Z,23.41
2023-02-18T15:40:24.852Z,22.67
2023-02-18T15:42:26.283Z,22.20
2023-02-18T15:44:27.592Z,21.94
2023-02-18T15:46:28.949Z,21.75
2023-02-18T15:48:33.115Z,21.65
2023-02-18T15:50:37.444Z,21.61
2023-02-18T15:52:39.272Z,21.97
2023-02-18T15:54:41.263Z,22.39
2023-02-18T15:56:42.604Z,22.56
2023-02-18T15:58:43.920Z,22.78
2023-02-18T16:00:45.290Z,22.73
2023-02-18T16:02:49.698Z,22.17
2023-02-18T16:04:51.027Z,21.67
2023-02-18T16:06:52.342Z,21.53
2023-02-18T16:08:53.643Z,22.02
2023-02-18T16:10:55.028Z,22.14
2023-02-18T16:13:02.913Z,22.21
2023-02-18T16:15:04.253Z,22.50
2023-02-18T16:17:05.552Z,23.24
2023-02-18T16:19:06.848Z,23.43
2023-02-18T16:21:09.716Z,23.18
2023-02-18T16:23:11.052Z,23.44
2023-02-18T16:25:12.384Z,23.17
2023-02-18T16:27:14.716Z,22.88
2023-02-18T16:29:16.019Z,22.64
2023-02-18T16:31:17.426Z,22.60
2023-02-18T16:33:18.759Z,22.60
2023-02-18T16:35:20.282Z,22.65
2023-02-18T16:37:39.700Z,23.47
2023-02-18T16:39:41.000Z,23.28
2023-02-18T16:41:42.303Z,22.59
2023-02-18T16:43:43.645Z,22.51
2023-02-18T16:45:46.074Z,22.97
2023-02-18T16:47:48.998Z,23.19
2023-02-18T16:49:50.340Z,22.61
2023-02-18T16:51:51.714Z,22.19
2023-02-18T16:53:53.560Z,21.94
2023-02-18T16:55:57.808Z,21.82
2023-02-18T16:57:59.193Z,21.75
2023-02-18T17:00:00.774Z,21.70
2023-02-18T17:02:04.904Z,21.62
2023-02-18T17:04:06.283Z,21.55
2023-02-18T17:06:07.916Z,21.48
2023-02-18T17:08:09.549Z,21.43
2023-02-18T17:10:10.845Z,21.38
2023-02-18T17:12:13.383Z,21.33
2023-02-18T17:14:14.743Z,21.28
2023-02-18T17:16:16.101Z,21.23
2023-02-18T17:18:17.421Z,21.17
2023-02-18T17:20:18.956Z,21.14
2023-02-18T17:22:20.367Z,21.09
2023-02-18T17:24:21.659Z,21.06
2023-02-18T17:26:24.651Z,21.06
2023-02-18T17:28:25.992Z,21.07
2023-02-18T17:30:27.330Z,21.09
2023-02-18T17:32:29.357Z,21.10
2023-02-18T17:34:32.478Z,21.14
2023-02-18T17:36:33.797Z,21.18
2023-02-18T17:38:35.138Z,21.22
2023-02-18T17:40:36.437Z,21.28
2023-02-18T17:42:37.794Z,21.36
2023-02-18T17:44:39.088Z,21.41
2023-02-18T17:46:40.399Z,21.46
2023-02-18T17:48:41.767Z,21.51
2023-02-18T17:50:43.066Z,21.57
2023-02-18T17:52:44.419Z,21.60
2023-02-18T17:54:45.724Z,21.60
2023-02-18T17:56:47.064Z,21.62
2023-02-18T17:58:48.844Z,21.63
2023-02-18T18:00:50.251Z,21.62
2023-02-18T18:02:54.260Z,21.60
2023-02-18T18:04:55.583Z,21.62
2023-02-18T18:06:56.942Z,21.59
2023-02-18T18:08:58.271Z,21.57
2023-02-18T18:10:59.559Z,21.55
2023-02-18T18:13:02.253Z,21.49
2023-02-18T18:15:04.755Z,21.45
2023-02-18T18:17:06.118Z,21.43
2023-02-18T18:19:07.423Z,21.39
2023-02-18T18:21:09.069Z,21.35
2023-02-18T18:23:10.503Z,21.30
2023-02-18T18:25:11.803Z,21.28
2023-02-18T18:27:13.414Z,21.25
2023-02-18T18:29:17.750Z,21.20
2023-02-18T18:31:22.139Z,21.19
2023-02-18T18:33:23.547Z,21.15
2023-02-18T18:35:24.950Z,21.12
2023-02-18T18:37:26.331Z,21.09
2023-02-18T18:39:27.717Z,21.07
2023-02-18T18:41:29.016Z,21.05
2023-02-18T18:43:32.794Z,21.03
2023-02-18T18:45:34.518Z,21.01
2023-02-18T18:47:35.819Z,21.01
2023-02-18T18:49:38.889Z,21.00
2023-02-18T18:51:40.349Z,20.98
2023-02-18T18:53:41.679Z,20.96
2023-02-18T18:55:43.105Z,20.95
2023-02-18T18:57:46.891Z,20.93
2023-02-18T18:59:48.524Z,20.90
2023-02-18T19:01:49.827Z,20.89
2023-02-18T19:03:51.186Z,20.89
2023-02-18T19:05:52.544Z,20.89
2023-02-18T19:07:53.887Z,20.90
2023-02-18T19:09:55.187Z,20.92
2023-02-18T19:11:56.482Z,20.95
2023-02-18T19:13:57.819Z,21.00
2023-02-18T19:15:59.197Z,21.04
2023-02-18T19:18:00.574Z,21.07
2023-02-18T19:20:02.198Z,21.10
2023-02-18T19:22:03.694Z,21.13
2023-02-18T19:24:04.985Z,21.15
2023-02-18T19:26:06.281Z,21.17
2023-02-18T19:28:07.674Z,21.20
2023-02-18T19:30:10.321Z,21.21
2023-02-18T19:32:11.720Z,21.21
2023-02-18T19:34:13.049Z,21.22
2023-02-18T19:36:14.903Z,21.20
2023-02-18T19:38:16.271Z,21.20
2023-02-18T19:40:17.611Z,21.19
2023-02-18T19:42:21.924Z,21.17
2023-02-18T19:44:23.235Z,21.16
2023-02-18T19:46:24.587Z,21.14
2023-02-18T19:48:28.812Z,21.11
2023-02-18T19:50:33.254Z,21.10
2023-02-18T19:52:34.551Z,21.05
2023-02-18T19:54:35.848Z,21.03
2023-02-18T19:56:37.126Z,21.01
2023-02-18T19:58:40.171Z,21.44
2023-02-18T20:00:43.670Z,21.92
2023-02-18T20:02:45.036Z,22.63
2023-02-18T20:04:46.390Z,22.51
2023-02-18T20:06:47.834Z,22.75
2023-02-18T20:08:49.178Z,22.86
2023-02-18T20:10:50.472Z,22.53
2023-02-18T20:12:54.698Z,22.37
2023-02-18T20:15:01.738Z,22.35
2023-02-18T20:17:03.035Z,22.37
2023-02-18T20:19:04.364Z,22.72
2023-02-18T20:21:05.703Z,22.57
2023-02-18T20:23:07.075Z,22.50
2023-02-18T20:25:08.423Z,22.55
2023-02-18T20:27:09.911Z,22.57
2023-02-18T20:29:11.247Z,22.28
2023-02-18T20:31:13.268Z,22.38
2023-02-18T20:33:14.840Z,22.92
2023-02-18T20:35:16.130Z,22.85
2023-02-18T20:37:17.463Z,22.48
2023-02-18T20:39:18.841Z,23.08
2023-02-18T20:41:20.153Z,23.05
2023-02-18T20:43:29.970Z,23.14
2023-02-18T20:45:31.272Z,22.77
2023-02-18T20:47:32.604Z,22.51
2023-02-18T20:49:42.242Z,22.39
2023-02-18T20:51:43.548Z,22.48
2023-02-18T20:53:44.886Z,22.83
2023-02-18T20:55:46.810Z,22.76
2023-02-18T20:57:48.456Z,22.73
2023-02-18T20:59:49.818Z,22.18
2023-02-18T21:01:51.212Z,21.92
2023-02-18T21:03:52.599Z,22.21
2023-02-18T21:05:53.892Z,22.38
2023-02-18T21:07:55.214Z,22.33
2023-02-18T21:09:56.522Z,22.37
2023-02-18T21:12:00.855Z,22.38
2023-02-18T21:14:02.271Z,22.34
2023-02-18T21:16:03.612Z,22.34
2023-02-18T21:18:04.948Z,22.36
2023-02-18T21:20:06.245Z,22.38
2023-02-18T21:22:07.565Z,22.36
2023-02-18T21:24:08.880Z,22.70
2023-02-18T21:26:10.275Z,22.99
2023-02-18T21:28:11.611Z,22.23
2023-02-18T21:30:13.000Z,21.84
2023-02-18T21:32:14.451Z,22.29
2023-02-18T21:34:15.886Z,22.83
2023-02-18T21:36:17.215Z,22.81
2023-02-18T21:38:18.515Z,22.67
2023-02-18T21:40:20.005Z,22.47
2023-02-18T21:42:21.353Z,22.55
2023-02-18T21:44:27.383Z,22.52
2023-02-18T21:46:38.082Z,22.57
2023-02-18T21:48:57.911Z,22.62
2023-02-18T21:50:59.233Z,22.85
2023-02-18T21:53:00.635Z,22.77
2023-02-18T21:55:01.980Z,22.79
2023-02-18T21:57:06.055Z,23.01
2023-02-18T21:59:07.360Z,22.83
2023-02-18T22:01:09.040Z,22.78
2023-02-18T22:03:10.499Z,22.74
2023-02-18T22:05:11.807Z,22.73
2023-02-18T22:07:13.103Z,22.62
2023-02-18T22:09:14.416Z,22.25
2023-02-18T22:11:15.807Z,21.99
2023-02-18T22:13:17.124Z,22.25
2023-02-18T22:15:18.455Z,22.65
2023-02-18T22:17:21.518Z,22.67
2023-02-18T22:19:22.890Z,22.74
2023-02-18T22:21:24.229Z,22.76
2023-02-18T22:23:28.441Z,21.85
2023-02-18T22:25:29.778Z,22.75
2023-02-18T22:27:31.082Z,22.82
2023-02-18T22:29:32.397Z,22.74
2023-02-18T22:31:33.831Z,22.75
2023-02-18T22:33:35.171Z,22.71
2023-02-18T22:35:36.510Z,22.75
2023-02-18T22:37:37.830Z,22.75
2023-02-18T22:39:39.135Z,22.76
2023-02-18T22:41:40.438Z,22.73
2023-02-18T22:43:41.747Z,22.71
2023-02-18T22:45:43.162Z,22.76
2023-02-18T22:47:44.496Z,22.86
2023-02-18T22:49:45.807Z,22.75
2023-02-18T22:51:47.147Z,22.75
2023-02-18T22:53:48.441Z,22.77
2023-02-18T22:55:49.740Z,22.70
2023-02-18T22:57:51.030Z,22.72
2023-02-18T22:59:52.329Z,22.74
2023-02-18T23:01:53.789Z,22.72
2023-02-18T23:03:55.195Z,22.35
2023-02-18T23:05:56.516Z,22.09
2023-02-18T23:07:57.848Z,22.68
2023-02-18T23:09:59.205Z,23.24
2023-02-18T23:12:00.532Z,23.01
2023-02-18T23:14:27.879Z,22.81
2023-02-18T23:16:29.200Z,22.65
2023-02-18T23:18:30.531Z,22.59
2023-02-18T23:20:50.469Z,22.59
2023-02-18T23:22:51.771Z,22.67
2023-02-18T23:24:53.062Z,22.73
2023-02-18T23:26:54.358Z,22.75
2023-02-18T23:28:55.658Z,22.92
2023-02-18T23:30:56.996Z,22.82
2023-02-18T23:32:58.371Z,22.72
2023-02-18T23:34:59.668Z,22.72
2023-02-18T23:37:01.040Z,22.71
2023-02-18T23:39:02.394Z,22.67
2023-02-18T23:41:03.683Z,22.69
2023-02-18T23:43:08.072Z,22.87
2023-02-18T23:45:09.378Z,22.73
2023-02-18T23:47:10.704Z,22.66
2023-02-18T23:49:11.996Z,22.60
2023-02-18T23:51:13.296Z,22.56
2023-02-18T23:53:14.619Z,22.51
2023-02-18T23:55:15.906Z,22.45
2023-02-18T23:57:17.197Z,22.42
2023-02-18T23:59:18.554Z,20.62
